sensor_id;sensor_type;location;lat;lon;timestamp;pressure;altitude;pressure_sealevel;temperature;humidity
61757;BME280;57225;61.460;24.060;2023-04-20T00:01:29;101839.50;;;6.10;65.22
61757;BME280;57225;61.460;24.060;2023-04-20T00:04:14;101838.88;;;5.96;65.17
61757;BME280;57225;61.460;24.060;2023-04-20T00:06:59;101842.16;;;5.89;66.15
61757;BME280;57225;61.460;24.060;2023-04-20T00:09:43;101833.84;;;5.89;66.70
61757;BME280;57225;61.460;24.060;2023-04-20T00:12:28;101833.03;;;5.97;66.89
61757;BME280;57225;61.460;24.060;2023-04-20T00:15:13;101802.28;;;5.90;67.52
61757;BME280;57225;61.460;24.060;2023-04-20T00:17:57;101816.75;;;5.96;67.36
61757;BME280;57225;61.460;24.060;2023-04-20T00:20:41;101818.38;;;5.97;67.45
61757;BME280;57225;61.460;24.060;2023-04-20T00:23:26;101808.25;;;6.01;67.46
61757;BME280;57225;61.460;24.060;2023-04-20T00:26:10;101805.84;;;5.99;68.06
61757;BME280;57225;61.460;24.060;2023-04-20T00:28:55;101800.31;;;5.99;68.33
61757;BME280;57225;61.460;24.060;2023-04-20T00:31:39;101800.63;;;5.98;68.16
61757;BME280;57225;61.460;24.060;2023-04-20T00:34:24;101792.16;;;5.94;68.09
61757;BME280;57225;61.460;24.060;2023-04-20T00:37:08;101808.13;;;5.97;68.50
61757;BME280;57225;61.460;24.060;2023-04-20T00:39:54;101803.41;;;5.98;68.72
61757;BME280;57225;61.460;24.060;2023-04-20T00:42:38;101799.31;;;5.95;69.11
61757;BME280;57225;61.460;24.060;2023-04-20T00:45:25;101794.28;;;5.97;69.10
61757;BME280;57225;61.460;24.060;2023-04-20T00:48:10;101790.56;;;5.93;69.72
61757;BME280;57225;61.460;24.060;2023-04-20T00:50:55;101788.25;;;5.95;69.93
61757;BME280;57225;61.460;24.060;2023-04-20T00:53:40;101797.03;;;5.97;69.31
61757;BME280;57225;61.460;24.060;2023-04-20T00:56:24;101785.34;;;6.00;69.21
61757;BME280;57225;61.460;24.060;2023-04-20T00:59:09;101785.97;;;5.97;69.66
61757;BME280;57225;61.460;24.060;2023-04-20T01:01:53;101792.16;;;5.94;69.54
61757;BME280;57225;61.460;24.060;2023-04-20T01:04:38;101782.91;;;5.90;69.15
61757;BME280;57225;61.460;24.060;2023-04-20T01:07:23;101772.00;;;5.85;69.66
61757;BME280;57225;61.460;24.060;2023-04-20T01:10:08;101783.22;;;5.89;69.95
61757;BME280;57225;61.460;24.060;2023-04-20T01:12:52;101777.03;;;5.83;64.00
61757;BME280;57225;61.460;24.060;2023-04-20T01:15:37;101780.28;;;5.85;65.07
61757;BME280;57225;61.460;24.060;2023-04-20T01:18:23;101778.50;;;5.89;61.84
61757;BME280;57225;61.460;24.060;2023-04-20T01:21:07;101777.19;;;5.95;61.37
61757;BME280;57225;61.460;24.060;2023-04-20T01:23:52;101778.69;;;5.93;61.87
61757;BME280;57225;61.460;24.060;2023-04-20T01:26:36;101779.13;;;5.95;61.49
61757;BME280;57225;61.460;24.060;2023-04-20T01:29:21;101776.53;;;5.98;60.57
61757;BME280;57225;61.460;24.060;2023-04-20T01:32:05;101774.09;;;5.97;61.12
61757;BME280;57225;61.460;24.060;2023-04-20T01:34:50;101777.69;;;5.97;60.84
61757;BME280;57225;61.460;24.060;2023-04-20T01:37:34;101748.44;;;5.88;60.74
61757;BME280;57225;61.460;24.060;2023-04-20T01:40:18;101765.16;;;6.00;60.19
61757;BME280;57225;61.460;24.060;2023-04-20T01:43:03;101775.34;;;6.08;59.92
61757;BME280;57225;61.460;24.060;2023-04-20T01:45:48;101767.03;;;6.08;59.88
61757;BME280;57225;61.460;24.060;2023-04-20T01:48:32;101765.09;;;6.09;60.04
61757;BME280;57225;61.460;24.060;2023-04-20T01:51:17;101764.63;;;6.07;60.14
61757;BME280;57225;61.460;24.060;2023-04-20T01:54:01;101759.75;;;6.03;60.36
61757;BME280;57225;61.460;24.060;2023-04-20T01:56:46;101754.22;;;6.03;60.32
61757;BME280;57225;61.460;24.060;2023-04-20T01:59:31;101762.84;;;6.02;59.84
61757;BME280;57225;61.460;24.060;2023-04-20T02:02:15;101749.19;;;5.97;60.18
61757;BME280;57225;61.460;24.060;2023-04-20T02:05:00;101742.06;;;5.87;60.55
61757;BME280;57225;61.460;24.060;2023-04-20T02:07:44;101758.31;;;5.89;60.52
61757;BME280;57225;61.460;24.060;2023-04-20T02:10:29;101757.03;;;5.86;60.85
61757;BME280;57225;61.460;24.060;2023-04-20T02:13:13;101749.03;;;5.85;60.61
61757;BME280;57225;61.460;24.060;2023-04-20T02:15:58;101752.13;;;5.83;60.88
61757;BME280;57225;61.460;24.060;2023-04-20T02:18:42;101752.13;;;5.83;60.68
61757;BME280;57225;61.460;24.060;2023-04-20T02:21:28;101748.91;;;5.81;61.24
61757;BME280;57225;61.460;24.060;2023-04-20T02:24:13;101750.03;;;5.80;61.27
61757;BME280;57225;61.460;24.060;2023-04-20T02:27:22;101745.16;;;5.77;61.62
61757;BME280;57225;61.460;24.060;2023-04-20T02:30:06;101754.94;;;5.75;61.84
61757;BME280;57225;61.460;24.060;2023-04-20T02:32:51;101751.00;;;5.76;61.78
61757;BME280;57225;61.460;24.060;2023-04-20T02:35:36;101746.28;;;5.76;61.69
61757;BME280;57225;61.460;24.060;2023-04-20T02:38:21;101748.91;;;5.81;61.73
61757;BME280;57225;61.460;24.060;2023-04-20T02:41:05;101748.56;;;5.83;61.86
61757;BME280;57225;61.460;24.060;2023-04-20T02:43:49;101737.34;;;5.79;61.77
61757;BME280;57225;61.460;24.060;2023-04-20T02:46:34;101743.50;;;5.85;61.51
61757;BME280;57225;61.460;24.060;2023-04-20T02:49:18;101738.13;;;5.88;61.39
61757;BME280;57225;61.460;24.060;2023-04-20T02:52:02;101725.78;;;5.77;61.69
61757;BME280;57225;61.460;24.060;2023-04-20T02:54:47;101730.69;;;5.80;61.65
61757;BME280;57225;61.460;24.060;2023-04-20T02:57:31;101730.47;;;5.85;61.69
61757;BME280;57225;61.460;24.060;2023-04-20T03:00:16;101729.06;;;5.88;62.08
61757;BME280;57225;61.460;24.060;2023-04-20T03:03:02;101717.63;;;5.89;62.05
61757;BME280;57225;61.460;24.060;2023-04-20T03:05:46;101717.31;;;5.82;62.07
61757;BME280;57225;61.460;24.060;2023-04-20T03:08:31;101719.59;;;5.80;62.35
61757;BME280;57225;61.460;24.060;2023-04-20T03:11:16;101718.28;;;5.86;62.15
61757;BME280;57225;61.460;24.060;2023-04-20T03:14:00;101718.28;;;5.86;62.24
61757;BME280;57225;61.460;24.060;2023-04-20T03:16:45;101716.16;;;5.83;62.25
61757;BME280;57225;61.460;24.060;2023-04-20T03:19:29;101726.09;;;5.84;62.21
61757;BME280;57225;61.460;24.060;2023-04-20T03:22:14;101716.16;;;5.92;62.40
61757;BME280;57225;61.460;24.060;2023-04-20T03:24:58;101709.63;;;5.96;62.43
61757;BME280;57225;61.460;24.060;2023-04-20T03:27:44;101707.84;;;6.00;62.52
61757;BME280;57225;61.460;24.060;2023-04-20T03:30:29;101707.63;;;6.05;62.67
61757;BME280;57225;61.460;24.060;2023-04-20T03:33:14;101680.84;;;5.89;62.60
61757;BME280;57225;61.460;24.060;2023-04-20T03:35:58;101701.72;;;6.16;62.11
61757;BME280;57225;61.460;24.060;2023-04-20T03:38:43;101702.00;;;6.23;61.77
61757;BME280;57225;61.460;24.060;2023-04-20T03:41:29;101698.09;;;6.24;61.50
61757;BME280;57225;61.460;24.060;2023-04-20T03:44:14;101702.47;;;6.25;61.25
61757;BME280;57225;61.460;24.060;2023-04-20T03:46:59;101696.75;;;6.30;61.76
61757;BME280;57225;61.460;24.060;2023-04-20T03:49:44;101704.38;;;6.33;61.34
61757;BME280;57225;61.460;24.060;2023-04-20T03:52:28;101701.88;;;6.40;60.96
61757;BME280;57225;61.460;24.060;2023-04-20T03:55:13;101696.94;;;6.45;60.48
61757;BME280;57225;61.460;24.060;2023-04-20T03:57:57;101698.72;;;6.50;60.25
61757;BME280;57225;61.460;24.060;2023-04-20T04:00:42;101700.16;;;6.56;60.50
61757;BME280;57225;61.460;24.060;2023-04-20T04:03:26;101699.47;;;6.59;59.91
61757;BME280;57225;61.460;24.060;2023-04-20T04:06:11;101702.66;;;6.70;59.80
61757;BME280;57225;61.460;24.060;2023-04-20T04:08:55;101704.31;;;6.83;59.38
61757;BME280;57225;61.460;24.060;2023-04-20T04:11:40;101697.22;;;6.94;58.70
61757;BME280;57225;61.460;24.060;2023-04-20T04:14:24;101698.97;;;6.99;58.45
61757;BME280;57225;61.460;24.060;2023-04-20T04:17:09;101699.50;;;7.13;58.48
61757;BME280;57225;61.460;24.060;2023-04-20T04:19:53;101698.59;;;7.21;58.19
61757;BME280;57225;61.460;24.060;2023-04-20T04:22:39;101701.06;;;7.35;58.13
61757;BME280;57225;61.460;24.060;2023-04-20T04:25:24;101694.34;;;7.36;57.95
61757;BME280;57225;61.460;24.060;2023-04-20T04:28:09;101692.41;;;7.36;57.28
61757;BME280;57225;61.460;24.060;2023-04-20T04:30:53;101693.97;;;7.58;57.17
61757;BME280;57225;61.460;24.060;2023-04-20T04:33:38;101685.72;;;7.49;56.72
61757;BME280;57225;61.460;24.060;2023-04-20T04:36:22;101683.78;;;7.62;56.92
61757;BME280;57225;61.460;24.060;2023-04-20T04:39:10;101681.72;;;7.71;56.16
61757;BME280;57225;61.460;24.060;2023-04-20T04:41:55;101668.66;;;7.96;54.77
61757;BME280;57225;61.460;24.060;2023-04-20T04:44:41;101684.88;;;8.70;52.07
61757;BME280;57225;61.460;24.060;2023-04-20T04:47:25;101684.53;;;9.27;49.82
61757;BME280;57225;61.460;24.060;2023-04-20T04:50:12;101683.50;;;9.63;47.80
61757;BME280;57225;61.460;24.060;2023-04-20T04:52:56;101679.72;;;10.03;46.98
61757;BME280;57225;61.460;24.060;2023-04-20T04:55:41;101676.03;;;10.49;45.53
61757;BME280;57225;61.460;24.060;2023-04-20T04:58:25;101671.91;;;10.24;44.73
61757;BME280;57225;61.460;24.060;2023-04-20T05:01:10;101673.47;;;10.41;44.24
61757;BME280;57225;61.460;24.060;2023-04-20T05:03:55;101672.59;;;10.56;44.52
61757;BME280;57225;61.460;24.060;2023-04-20T05:06:39;101666.53;;;10.89;43.06
61757;BME280;57225;61.460;24.060;2023-04-20T05:09:24;101664.38;;;10.63;43.83
61757;BME280;57225;61.460;24.060;2023-04-20T05:12:08;101657.81;;;11.33;43.42
61757;BME280;57225;61.460;24.060;2023-04-20T05:14:53;101665.13;;;11.41;42.46
61757;BME280;57225;61.460;24.060;2023-04-20T05:17:37;101645.00;;;10.89;42.72
61757;BME280;57225;61.460;24.060;2023-04-20T05:20:22;101666.31;;;10.08;44.23
61757;BME280;57225;61.460;24.060;2023-04-20T05:23:06;101663.09;;;9.75;45.36
61757;BME280;57225;61.460;24.060;2023-04-20T05:25:50;101653.31;;;9.81;45.78
61757;BME280;57225;61.460;24.060;2023-04-20T05:28:35;101659.34;;;9.83;46.32
61757;BME280;57225;61.460;24.060;2023-04-20T05:31:19;101663.00;;;9.87;46.41
61757;BME280;57225;61.460;24.060;2023-04-20T05:34:04;101656.97;;;10.01;46.75
61757;BME280;57225;61.460;24.060;2023-04-20T05:36:48;101659.97;;;9.77;46.73
61757;BME280;57225;61.460;24.060;2023-04-20T05:39:33;101657.91;;;9.58;47.40
61757;BME280;57225;61.460;24.060;2023-04-20T05:42:17;101619.09;;;9.34;47.63
61757;BME280;57225;61.460;24.060;2023-04-20T05:45:02;101642.25;;;9.69;47.40
61757;BME280;57225;61.460;24.060;2023-04-20T05:47:54;101634.78;;;10.04;47.57
61757;BME280;57225;61.460;24.060;2023-04-20T05:50:38;101637.81;;;10.15;46.58
61757;BME280;57225;61.460;24.060;2023-04-20T05:53:23;101635.38;;;10.14;46.54
61757;BME280;57225;61.460;24.060;2023-04-20T05:56:07;101631.81;;;10.48;47.04
61757;BME280;57225;61.460;24.060;2023-04-20T05:58:53;101636.66;;;10.70;45.33
61757;BME280;57225;61.460;24.060;2023-04-20T06:01:38;101631.81;;;10.86;44.63
61757;BME280;57225;61.460;24.060;2023-04-20T06:04:22;101620.44;;;10.57;44.91
61757;BME280;57225;61.460;24.060;2023-04-20T06:07:07;101622.91;;;11.00;45.42
61757;BME280;57225;61.460;24.060;2023-04-20T06:09:51;101626.81;;;10.96;44.58
61757;BME280;57225;61.460;24.060;2023-04-20T06:12:35;101612.31;;;11.32;44.74
61757;BME280;57225;61.460;24.060;2023-04-20T06:15:20;101607.88;;;11.50;42.42
61757;BME280;57225;61.460;24.060;2023-04-20T06:18:04;101614.63;;;11.72;43.10
61757;BME280;57225;61.460;24.060;2023-04-20T06:20:49;101606.16;;;11.42;43.21
61757;BME280;57225;61.460;24.060;2023-04-20T06:23:34;101604.63;;;11.03;43.35
61757;BME280;57225;61.460;24.060;2023-04-20T06:26:20;101610.97;;;11.00;43.64
61757;BME280;57225;61.460;24.060;2023-04-20T06:29:05;101611.06;;;11.07;43.84
61757;BME280;57225;61.460;24.060;2023-04-20T06:31:49;101583.72;;;10.93;44.00
61757;BME280;57225;61.460;24.060;2023-04-20T06:34:34;101607.75;;;10.78;43.80
61757;BME280;57225;61.460;24.060;2023-04-20T06:37:18;101596.94;;;10.19;43.70
61757;BME280;57225;61.460;24.060;2023-04-20T06:40:04;101585.72;;;10.35;44.55
61757;BME280;57225;61.460;24.060;2023-04-20T06:42:51;101596.00;;;10.50;43.35
61757;BME280;57225;61.460;24.060;2023-04-20T06:45:36;101590.56;;;10.57;43.58
61757;BME280;57225;61.460;24.060;2023-04-20T06:48:21;101602.19;;;11.01;44.77
61757;BME280;57225;61.460;24.060;2023-04-20T06:51:05;101587.84;;;11.22;43.16
61757;BME280;57225;61.460;24.060;2023-04-20T06:53:49;101582.06;;;11.34;43.15
61757;BME280;57225;61.460;24.060;2023-04-20T06:56:34;101581.56;;;11.74;44.44
61757;BME280;57225;61.460;24.060;2023-04-20T06:59:18;101583.22;;;12.05;42.09
61757;BME280;57225;61.460;24.060;2023-04-20T07:02:03;101577.75;;;12.12;41.46
61757;BME280;57225;61.460;24.060;2023-04-20T07:04:47;101581.03;;;11.91;40.93
61757;BME280;57225;61.460;24.060;2023-04-20T07:07:32;101576.47;;;11.80;41.00
61757;BME280;57225;61.460;24.060;2023-04-20T07:10:16;101552.59;;;11.86;41.05
61757;BME280;57225;61.460;24.060;2023-04-20T07:13:01;101572.25;;;12.19;40.15
61757;BME280;57225;61.460;24.060;2023-04-20T07:15:45;101576.50;;;12.39;40.08
61757;BME280;57225;61.460;24.060;2023-04-20T07:18:29;101564.34;;;12.25;40.43
61757;BME280;57225;61.460;24.060;2023-04-20T07:21:14;101574.59;;;12.17;40.79
61757;BME280;57225;61.460;24.060;2023-04-20T07:23:59;101573.09;;;12.23;40.42
61757;BME280;57225;61.460;24.060;2023-04-20T07:26:43;101565.53;;;12.27;41.55
61757;BME280;57225;61.460;24.060;2023-04-20T07:29:29;101565.78;;;12.78;40.94
61757;BME280;57225;61.460;24.060;2023-04-20T07:32:13;101561.59;;;12.62;40.86
61757;BME280;57225;61.460;24.060;2023-04-20T07:34:58;101557.44;;;12.48;40.65
61757;BME280;57225;61.460;24.060;2023-04-20T07:37:42;101551.94;;;12.56;40.31
61757;BME280;57225;61.460;24.060;2023-04-20T07:40:26;101551.91;;;12.89;39.79
61757;BME280;57225;61.460;24.060;2023-04-20T07:43:11;101553.81;;;13.18;38.85
61757;BME280;57225;61.460;24.060;2023-04-20T07:45:55;101553.28;;;13.06;39.08
61757;BME280;57225;61.460;24.060;2023-04-20T07:48:40;101544.09;;;13.49;39.78
61757;BME280;57225;61.460;24.060;2023-04-20T07:51:25;101558.09;;;13.09;39.47
61757;BME280;57225;61.460;24.060;2023-04-20T07:54:09;101532.41;;;12.96;38.89
61757;BME280;57225;61.460;24.060;2023-04-20T07:56:54;101544.78;;;12.95;38.32
61757;BME280;57225;61.460;24.060;2023-04-20T07:59:39;101530.28;;;12.86;38.29
61757;BME280;57225;61.460;24.060;2023-04-20T08:02:25;101535.44;;;12.80;38.92
61757;BME280;57225;61.460;24.060;2023-04-20T08:05:09;101543.47;;;12.48;39.79
61757;BME280;57225;61.460;24.060;2023-04-20T08:07:54;101542.38;;;12.60;39.95
61757;BME280;57225;61.460;24.060;2023-04-20T08:10:38;101532.63;;;12.43;40.63
61757;BME280;57225;61.460;24.060;2023-04-20T08:13:23;101535.59;;;12.58;40.02
61757;BME280;57225;61.460;24.060;2023-04-20T08:16:08;101531.38;;;12.78;40.21
61757;BME280;57225;61.460;24.060;2023-04-20T08:18:52;101534.28;;;12.85;39.92
61757;BME280;57225;61.460;24.060;2023-04-20T08:21:39;101524.56;;;13.12;39.97
61757;BME280;57225;61.460;24.060;2023-04-20T08:24:24;101518.97;;;13.12;39.26
61757;BME280;57225;61.460;24.060;2023-04-20T08:27:08;101521.97;;;13.34;39.60
61757;BME280;57225;61.460;24.060;2023-04-20T08:29:53;101517.00;;;13.67;39.32
61757;BME280;57225;61.460;24.060;2023-04-20T08:32:37;101511.91;;;13.84;39.25
61757;BME280;57225;61.460;24.060;2023-04-20T08:35:23;101514.41;;;13.99;39.52
61757;BME280;57225;61.460;24.060;2023-04-20T08:38:08;101512.44;;;14.10;38.31
61757;BME280;57225;61.460;24.060;2023-04-20T08:40:52;101510.06;;;14.13;38.45
61757;BME280;57225;61.460;24.060;2023-04-20T08:43:37;101509.03;;;14.49;38.64
61757;BME280;57225;61.460;24.060;2023-04-20T08:46:21;101506.34;;;15.20;36.96
61757;BME280;57225;61.460;24.060;2023-04-20T08:49:11;101507.16;;;15.35;37.45
61757;BME280;57225;61.460;24.060;2023-04-20T08:51:55;101504.72;;;15.12;36.61
61757;BME280;57225;61.460;24.060;2023-04-20T08:54:40;101511.16;;;15.58;38.10
61757;BME280;57225;61.460;24.060;2023-04-20T08:57:25;101509.53;;;15.50;36.06
61757;BME280;57225;61.460;24.060;2023-04-20T09:00:10;101508.75;;;15.25;36.76
61757;BME280;57225;61.460;24.060;2023-04-20T09:02:54;101493.06;;;14.81;36.94
61757;BME280;57225;61.460;24.060;2023-04-20T09:05:39;101497.09;;;14.95;37.87
61757;BME280;57225;61.460;24.060;2023-04-20T09:08:38;101509.53;;;14.94;38.11
61757;BME280;57225;61.460;24.060;2023-04-20T09:11:23;101515.16;;;15.15;38.99
61757;BME280;57225;61.460;24.060;2023-04-20T09:14:10;101510.38;;;15.22;37.67
61757;BME280;57225;61.460;24.060;2023-04-20T09:16:58;101499.53;;;15.28;38.10
61757;BME280;57225;61.460;24.060;2023-04-20T09:19:52;101496.31;;;15.47;37.49
61757;BME280;57225;61.460;24.060;2023-04-20T09:22:36;101498.34;;;15.54;37.09
61757;BME280;57225;61.460;24.060;2023-04-20T09:25:21;101498.22;;;16.00;36.34
61757;BME280;57225;61.460;24.060;2023-04-20T09:28:07;101485.00;;;15.90;36.08
61757;BME280;57225;61.460;24.060;2023-04-20T09:30:52;101488.13;;;16.13;36.21
61757;BME280;57225;61.460;24.060;2023-04-20T09:33:36;101482.09;;;16.18;36.78
61757;BME280;57225;61.460;24.060;2023-04-20T09:36:22;101477.66;;;16.21;36.69
61757;BME280;57225;61.460;24.060;2023-04-20T09:39:14;101476.38;;;16.32;36.68
61757;BME280;57225;61.460;24.060;2023-04-20T09:42:03;101472.53;;;15.91;37.28
61757;BME280;57225;61.460;24.060;2023-04-20T09:44:47;101467.31;;;15.93;37.98
61757;BME280;57225;61.460;24.060;2023-04-20T09:47:34;101466.72;;;16.33;37.60
61757;BME280;57225;61.460;24.060;2023-04-20T09:50:20;101456.41;;;16.82;36.25
61757;BME280;57225;61.460;24.060;2023-04-20T09:53:05;101455.53;;;16.92;36.20
61757;BME280;57225;61.460;24.060;2023-04-20T09:55:49;101448.72;;;16.89;36.69
61757;BME280;57225;61.460;24.060;2023-04-20T09:58:35;101458.25;;;17.03;37.01
61757;BME280;57225;61.460;24.060;2023-04-20T10:01:21;101442.75;;;17.28;36.36
61757;BME280;57225;61.460;24.060;2023-04-20T10:04:07;101440.88;;;17.56;35.97
61757;BME280;57225;61.460;24.060;2023-04-20T10:06:54;101427.56;;;17.94;35.83
61757;BME280;57225;61.460;24.060;2023-04-20T10:09:41;101444.91;;;17.55;35.14
61757;BME280;57225;61.460;24.060;2023-04-20T10:12:25;101447.84;;;16.96;35.52
61757;BME280;57225;61.460;24.060;2023-04-20T10:15:10;101423.50;;;16.72;36.43
61757;BME280;57225;61.460;24.060;2023-04-20T10:17:55;101431.91;;;16.79;37.17
61757;BME280;57225;61.460;24.060;2023-04-20T10:20:39;101426.97;;;16.94;36.84
61757;BME280;57225;61.460;24.060;2023-04-20T10:23:24;101422.28;;;16.73;37.21
61757;BME280;57225;61.460;24.060;2023-04-20T10:26:08;101429.91;;;17.24;37.08
61757;BME280;57225;61.460;24.060;2023-04-20T10:28:53;101419.91;;;16.68;37.60
61757;BME280;57225;61.460;24.060;2023-04-20T10:31:41;101432.53;;;17.01;37.18
61757;BME280;57225;61.460;24.060;2023-04-20T10:34:35;101417.03;;;17.23;37.31
61757;BME280;57225;61.460;24.060;2023-04-20T10:37:48;101408.75;;;17.05;37.20
61757;BME280;57225;61.460;24.060;2023-04-20T10:40:33;101407.25;;;16.90;36.91
61757;BME280;57225;61.460;24.060;2023-04-20T10:43:19;101408.09;;;17.32;37.99
61757;BME280;57225;61.460;24.060;2023-04-20T10:46:20;101403.09;;;17.46;37.55
61757;BME280;57225;61.460;24.060;2023-04-20T10:49:04;101397.38;;;17.57;36.35
61757;BME280;57225;61.460;24.060;2023-04-20T10:51:50;101389.13;;;17.36;36.97
61757;BME280;57225;61.460;24.060;2023-04-20T10:54:39;101387.66;;;17.20;38.14
61757;BME280;57225;61.460;24.060;2023-04-20T10:57:23;101376.72;;;16.85;38.29
61757;BME280;57225;61.460;24.060;2023-04-20T11:00:15;101388.66;;;16.48;38.59
61757;BME280;57225;61.460;24.060;2023-04-20T11:03:00;101380.16;;;16.62;39.76
61757;BME280;57225;61.460;24.060;2023-04-20T11:05:49;101363.22;;;16.66;39.51
61757;BME280;57225;61.460;24.060;2023-04-20T11:11:23;101360.78;;;16.68;39.09
61757;BME280;57225;61.460;24.060;2023-04-20T11:14:11;101363.06;;;16.83;38.53
61757;BME280;57225;61.460;24.060;2023-04-20T11:16:55;101369.59;;;17.14;39.44
61757;BME280;57225;61.460;24.060;2023-04-20T11:19:40;101368.97;;;17.75;37.70
61757;BME280;57225;61.460;24.060;2023-04-20T11:22:24;101357.97;;;17.50;37.54
61757;BME280;57225;61.460;24.060;2023-04-20T11:25:10;101352.69;;;17.18;38.10
61757;BME280;57225;61.460;24.060;2023-04-20T11:28:06;101344.41;;;17.38;38.51
61757;BME280;57225;61.460;24.060;2023-04-20T11:30:54;101346.38;;;17.03;38.60
61757;BME280;57225;61.460;24.060;2023-04-20T11:33:38;101343.34;;;17.62;37.66
61757;BME280;57225;61.460;24.060;2023-04-20T11:36:24;101349.94;;;17.82;37.77
61757;BME280;57225;61.460;24.060;2023-04-20T11:39:10;101348.13;;;17.65;38.66
61757;BME280;57225;61.460;24.060;2023-04-20T11:41:56;101327.03;;;18.07;38.12
61757;BME280;57225;61.460;24.060;2023-04-20T11:44:41;101336.44;;;18.24;36.99
61757;BME280;57225;61.460;24.060;2023-04-20T11:47:25;101333.41;;;18.38;36.77
61757;BME280;57225;61.460;24.060;2023-04-20T11:50:10;101333.25;;;18.22;36.78
61757;BME280;57225;61.460;24.060;2023-04-20T11:52:54;101324.72;;;18.52;37.20
61757;BME280;57225;61.460;24.060;2023-04-20T11:55:40;101325.66;;;18.19;36.85
61757;BME280;57225;61.460;24.060;2023-04-20T11:58:24;101319.00;;;17.75;38.20
61757;BME280;57225;61.460;24.060;2023-04-20T12:01:09;101309.91;;;17.91;38.10
61757;BME280;57225;61.460;24.060;2023-04-20T12:03:53;101313.78;;;18.54;36.87
61757;BME280;57225;61.460;24.060;2023-04-20T12:06:38;101308.53;;;18.79;35.94
61757;BME280;57225;61.460;24.060;2023-04-20T12:09:23;101304.69;;;18.70;36.19
61757;BME280;57225;61.460;24.060;2023-04-20T12:12:08;101273.91;;;18.52;36.98
61757;BME280;57225;61.460;24.060;2023-04-20T12:14:53;101299.34;;;18.75;37.05
61757;BME280;57225;61.460;24.060;2023-04-20T12:17:37;101298.28;;;18.66;36.35
61757;BME280;57225;61.460;24.060;2023-04-20T12:20:22;101282.84;;;17.70;37.35
61757;BME280;57225;61.460;24.060;2023-04-20T12:23:06;101289.69;;;17.96;37.75
61757;BME280;57225;61.460;24.060;2023-04-20T12:25:51;101286.13;;;18.19;37.91
61757;BME280;57225;61.460;24.060;2023-04-20T12:28:35;101281.91;;;18.57;36.53
61757;BME280;57225;61.460;24.060;2023-04-20T12:31:20;101277.50;;;18.99;36.82
61757;BME280;57225;61.460;24.060;2023-04-20T12:34:06;101277.44;;;19.03;36.44
61757;BME280;57225;61.460;24.060;2023-04-20T12:36:50;101277.94;;;19.17;35.90
61757;BME280;57225;61.460;24.060;2023-04-20T12:39:35;101269.94;;;18.93;36.36
61757;BME280;57225;61.460;24.060;2023-04-20T12:42:19;101270.13;;;19.45;35.79
61757;BME280;57225;61.460;24.060;2023-04-20T12:45:05;101264.44;;;18.85;37.72
61757;BME280;57225;61.460;24.060;2023-04-20T12:47:50;101264.31;;;19.12;35.82
61757;BME280;57225;61.460;24.060;2023-04-20T12:50:34;101257.72;;;19.19;35.97
61757;BME280;57225;61.460;24.060;2023-04-20T12:53:18;101259.75;;;19.38;36.73
61757;BME280;57225;61.460;24.060;2023-04-20T12:56:04;101255.69;;;19.19;36.31
61757;BME280;57225;61.460;24.060;2023-04-20T12:58:48;101254.09;;;18.56;37.12
61757;BME280;57225;61.460;24.060;2023-04-20T13:01:32;101249.34;;;18.26;37.98
61757;BME280;57225;61.460;24.060;2023-04-20T13:04:17;101251.06;;;18.43;38.51
61757;BME280;57225;61.460;24.060;2023-04-20T13:07:01;101239.25;;;17.75;38.16
61757;BME280;57225;61.460;24.060;2023-04-20T13:09:46;101234.88;;;17.70;39.38
61757;BME280;57225;61.460;24.060;2023-04-20T13:12:30;101241.16;;;18.08;38.15
61757;BME280;57225;61.460;24.060;2023-04-20T13:15:15;101238.59;;;17.90;39.29
61757;BME280;57225;61.460;24.060;2023-04-20T13:18:02;101238.31;;;17.20;40.44
61757;BME280;57225;61.460;24.060;2023-04-20T13:20:47;101227.03;;;17.20;40.79
61757;BME280;57225;61.460;24.060;2023-04-20T13:23:32;101227.53;;;17.46;40.50
61757;BME280;57225;61.460;24.060;2023-04-20T13:26:17;101228.88;;;17.38;40.67
61757;BME280;57225;61.460;24.060;2023-04-20T13:29:02;101227.44;;;17.53;41.80
61757;BME280;57225;61.460;24.060;2023-04-20T13:31:46;101214.78;;;17.68;40.03
61757;BME280;57225;61.460;24.060;2023-04-20T13:34:31;101207.22;;;17.58;40.53
61757;BME280;57225;61.460;24.060;2023-04-20T13:37:15;101221.84;;;17.49;40.76
61757;BME280;57225;61.460;24.060;2023-04-20T13:40:00;101213.44;;;17.46;40.71
61757;BME280;57225;61.460;24.060;2023-04-20T13:42:44;101213.66;;;17.32;42.14
61757;BME280;57225;61.460;24.060;2023-04-20T13:45:29;101218.72;;;17.44;41.81
61757;BME280;57225;61.460;24.060;2023-04-20T13:48:13;101205.53;;;17.34;41.77
61757;BME280;57225;61.460;24.060;2023-04-20T13:50:58;101217.44;;;17.48;41.58
61757;BME280;57225;61.460;24.060;2023-04-20T13:53:42;101207.94;;;17.35;41.06
61757;BME280;57225;61.460;24.060;2023-04-20T13:56:26;101199.63;;;17.55;40.39
61757;BME280;57225;61.460;24.060;2023-04-20T13:59:11;101201.81;;;17.97;40.89
61757;BME280;57225;61.460;24.060;2023-04-20T14:01:55;101207.34;;;18.04;40.17
61757;BME280;57225;61.460;24.060;2023-04-20T14:04:40;101193.16;;;17.85;40.03
61757;BME280;57225;61.460;24.060;2023-04-20T14:07:24;101199.16;;;17.87;41.04
61757;BME280;57225;61.460;24.060;2023-04-20T14:10:09;101198.75;;;17.88;41.05
61757;BME280;57225;61.460;24.060;2023-04-20T14:12:54;101182.22;;;17.63;40.89
61757;BME280;57225;61.460;24.060;2023-04-20T14:15:38;101187.19;;;17.79;42.13
61757;BME280;57225;61.460;24.060;2023-04-20T14:18:23;101191.22;;;17.51;41.73